Albany Township, Maine
Current Conditions -  °F | °C
As of 1:52 AM on Thursday 23 Oct 2014 (Local Time) from KBML Reporting Station
Haze Haze  
Wind Chill:   Ceiling: 1600
Heat Index:   Visibility: 5mi
Dew Point:   Wind: 7mph
Humidity: 93%   Direction: 340°NNW
Pressure: 30.02"   Gusts: NA
Location:  44.3718°N, 70.8421°W
Report Text: KBML 230552Z AUTO 34006KT 5SM BR SCT010 OVC016 07/06 A3002 RMK AO2 SLP173 60001 T00720061 10078 20072 56013
Loading
Personal Weather Stations






























Interactive Weather Map
Tropical Storm Tracking
New forecast layout! Learn more

10-Day Weather Forecast

Advertisements
Track Severe Weather on mobile